»·PEaware :: COA103 KSNA-KLAS

COA103 :: KSNA-KLAS

FLIGHT INFORMATION

Flight Status: Arrived
Operator:
Continental Air Lines
More flights by this operator :: More flights under this callsign
Pilot: Andrew C. (28419)
Aircraft: BOEING 737-800
(B738)
More flights by this aircraft type
Origin: KSNA John Wayne-Orange Co
United States
Destination: KLAS McCarran Intl
United States
More flights between these airports :: More routes between these airports
Route: +FINZZ3 MISEN KEPEC6
File this flight plan on PilotEdge
Remarks: RMK / SIMBRIEF
Altitude:
(Current/Filed)
35,000ft
Speed:
(Current/Filed)
464kts
Departed: 14-Sep-20 01:41 PM
Arrived: 14-Sep-20 02:29 PM
Distance/Time
Traveled:
197nm/0:48
Distance/Time
To Go:
Arrived

Flight Plot

Page will automatically refresh every two minutes.

Flight plan parsing failed; only flown route is shown


Map Options




Map Legend


Flown Route
Filed Route
Departure Airport
Arrival Airport
Navaid (VOR, NDB)
Fix

Horizontal Profiles

Position Reports

Time Latitude Longitude Heading Altitude Ground
Speed
14-Sep-20 13:29 33.675715 -117.864627 118 66ft 0kts
14-Sep-20 13:30 33.675715 -117.864627 118 66ft 0kts
14-Sep-20 13:31 33.675715 -117.864627 118 66ft 0kts
14-Sep-20 13:32 33.675823 -117.864869 118 66ft 0kts
14-Sep-20 13:33 33.675715 -117.865454 31 66ft 0kts
14-Sep-20 13:34 33.675650 -117.865495 27 66ft 0kts
14-Sep-20 13:35 33.675650 -117.865495 27 66ft 0kts
14-Sep-20 13:36 33.676925 -117.864780 26 66ft 8kts
14-Sep-20 13:37 33.679692 -117.862935 28 66ft 13kts
14-Sep-20 13:38 33.680594 -117.862975 303 66ft 0kts
14-Sep-20 13:40 33.681168 -117.864212 297 66ft 13kts
14-Sep-20 13:41 33.668055 -117.873710 208 172ft 169kts
14-Sep-20 13:42 33.616853 -117.893410 185 2188ft 236kts
14-Sep-20 13:43 33.554131 -117.919857 219 4961ft 265kts
14-Sep-20 13:44 33.508206 -117.992662 258 6466ft 287kts
14-Sep-20 13:45 33.539130 -118.077679 319 7993ft 290kts
14-Sep-20 13:46 33.617680 -118.106467 9 10559ft 334kts
14-Sep-20 13:47 33.709157 -118.059356 26 13079ft 370kts
14-Sep-20 13:48 33.803041 -118.004704 25 16042ft 382kts
14-Sep-20 13:49 33.900035 -117.947640 30 18618ft 395kts
14-Sep-20 13:50 33.990387 -117.868135 36 20912ft 410kts
14-Sep-20 13:51 34.080110 -117.779774 45 22922ft 426kts
14-Sep-20 13:52 34.159779 -117.670583 48 24705ft 441kts
14-Sep-20 13:53 34.239141 -117.554791 49 26320ft 455kts
14-Sep-20 13:54 34.319900 -117.435014 49 27854ft 467kts
14-Sep-20 13:55 34.402708 -117.311080 49 29221ft 479kts
14-Sep-20 13:56 34.486456 -117.185516 49 30850ft 480kts
14-Sep-20 13:57 34.570383 -117.060161 47 32518ft 478kts
14-Sep-20 13:57 34.641147 -116.957146 47 33806ft 476kts
14-Sep-20 13:58 34.725291 -116.834370 47 35131ft 475kts
14-Sep-20 13:59 34.810950 -116.709028 47 32822ft 488kts
14-Sep-20 14:01 34.923646 -116.578742 36 28242ft 470kts
14-Sep-20 14:01 35.006197 -116.497999 36 26346ft 447kts
14-Sep-20 14:02 35.099922 -116.404701 42 24191ft 421kts
14-Sep-20 14:03 35.181893 -116.304098 44 24072ft 425kts
14-Sep-20 14:04 35.262075 -116.203918 45 22427ft 402kts
14-Sep-20 14:05 35.338488 -116.107978 45 20330ft 386kts
14-Sep-20 14:06 35.411719 -116.015664 45 18536ft 366kts
14-Sep-20 14:07 35.485100 -115.923417 45 17462ft 376kts
14-Sep-20 14:08 35.557462 -115.833630 46 15372ft 363kts
14-Sep-20 14:09 35.626774 -115.746312 47 13659ft 344kts
14-Sep-20 14:10 35.688573 -115.664916 49 13054ft 314kts
14-Sep-20 14:11 35.754146 -115.592048 28 13045ft 323kts
14-Sep-20 14:12 35.841766 -115.570713 2 13046ft 326kts
14-Sep-20 14:13 35.931887 -115.563220 16 13032ft 324kts
14-Sep-20 14:14 35.994241 -115.492355 68 12218ft 308kts
14-Sep-20 14:15 36.024312 -115.395444 76 11130ft 289kts
14-Sep-20 14:16 36.026104 -115.302557 98 10302ft 266kts
14-Sep-20 14:17 36.019304 -115.211636 97 9134ft 265kts
14-Sep-20 14:18 36.013078 -115.121081 96 8229ft 256kts
14-Sep-20 14:19 36.007734 -115.037612 96 8025ft 240kts
14-Sep-20 14:20 36.003639 -114.955194 94 7646ft 239kts
14-Sep-20 14:21 36.001936 -114.873705 75 6696ft 238kts
14-Sep-20 14:22 36.057111 -114.846766 331 5688ft 239kts
14-Sep-20 14:23 36.074324 -114.911039 264 5058ft 195kts
14-Sep-20 14:24 36.073515 -114.979556 266 4602ft 202kts
14-Sep-20 14:25 36.073953 -115.047755 266 3276ft 185kts
14-Sep-20 14:26 36.073650 -115.100803 269 2393ft 147kts
14-Sep-20 14:27 36.073666 -115.144359 270 2106ft 52kts
14-Sep-20 14:28 36.074692 -115.150460 301 2125ft 0kts
14-Sep-20 14:29 36.078504 -115.153056 15 2125ft 13kts
14-Sep-20 14:30 36.078545 -115.147063 95 2107ft 22kts
14-Sep-20 14:31 36.079409 -115.140279 27 2080ft 4kts
14-Sep-20 14:32 36.079707 -115.140103 25 2079ft 0kts
14-Sep-20 14:33 36.079707 -115.140103 25 2079ft 0kts
14-Sep-20 14:34 36.079707 -115.140103 25 2079ft 0kts

Navigation Log

Ident Type
Flight plan parsing failed, navigation log unavailable